sensor_id;sensor_type;location;lat;lon;timestamp;pressure;altitude;pressure_sealevel;temperature;humidity
22311;BME280;11323;49.610;11.016;2023-02-22T00:03:48;98154.34;;;14.90;67.44
22311;BME280;11323;49.610;11.016;2023-02-22T00:08:50;98147.47;;;14.89;67.29
22311;BME280;11323;49.610;11.016;2023-02-22T00:13:51;98145.19;;;14.86;67.45
22311;BME280;11323;49.610;11.016;2023-02-22T00:18:56;98144.84;;;14.89;67.49
22311;BME280;11323;49.610;11.016;2023-02-22T00:23:56;98130.44;;;14.85;67.33
22311;BME280;11323;49.610;11.016;2023-02-22T00:28:56;98136.03;;;14.82;67.31
22311;BME280;11323;49.610;11.016;2023-02-22T00:33:57;98138.00;;;14.80;67.50
22311;BME280;11323;49.610;11.016;2023-02-22T00:38:58;98133.75;;;14.79;67.59
22311;BME280;11323;49.610;11.016;2023-02-22T00:43:58;98133.09;;;14.77;67.48
22311;BME280;11323;49.610;11.016;2023-02-22T00:48:58;98129.84;;;14.75;67.63
22311;BME280;11323;49.610;11.016;2023-02-22T00:53:59;98135.44;;;14.72;67.49
22311;BME280;11323;49.610;11.016;2023-02-22T00:59:00;98107.72;;;14.61;67.55
22311;BME280;11323;49.610;11.016;2023-02-22T01:04:00;98128.88;;;14.67;67.46
22311;BME280;11323;49.610;11.016;2023-02-22T01:09:01;98118.88;;;14.63;67.62
22311;BME280;11323;49.610;11.016;2023-02-22T01:14:01;98107.72;;;14.61;67.62
22311;BME280;11323;49.610;11.016;2023-02-22T01:19:02;98105.94;;;14.53;67.83
22311;BME280;11323;49.610;11.016;2023-02-22T01:24:02;98113.66;;;14.55;67.89
22311;BME280;11323;49.610;11.016;2023-02-22T01:29:03;98111.56;;;14.50;67.87
22311;BME280;11323;49.610;11.016;2023-02-22T01:34:03;98111.22;;;14.45;67.78
22311;BME280;11323;49.610;11.016;2023-02-22T01:39:03;98118.63;;;14.41;68.39
22311;BME280;11323;49.610;11.016;2023-02-22T01:44:35;98106.50;;;14.40;67.86
22311;BME280;11323;49.610;11.016;2023-02-22T01:49:40;98089.97;;;14.31;68.40
22311;BME280;11323;49.610;11.016;2023-02-22T01:54:54;98103.06;;;14.40;67.95
22311;BME280;11323;49.610;11.016;2023-02-22T02:00:04;98095.88;;;14.33;68.27
22311;BME280;11323;49.610;11.016;2023-02-22T02:05:16;98094.22;;;14.32;68.34
22311;BME280;11323;49.610;11.016;2023-02-22T02:10:17;98086.56;;;14.31;68.25
22311;BME280;11323;49.610;11.016;2023-02-22T02:15:25;98089.34;;;14.29;68.56
22311;BME280;11323;49.610;11.016;2023-02-22T02:31:06;98074.28;;;14.23;68.49
22311;BME280;11323;49.610;11.016;2023-02-22T02:36:15;98068.25;;;14.23;68.50
22311;BME280;11323;49.610;11.016;2023-02-22T02:41:48;98062.50;;;14.19;68.72
22311;BME280;11323;49.610;11.016;2023-02-22T02:46:54;98065.13;;;14.19;68.61
22311;BME280;11323;49.610;11.016;2023-02-22T02:51:57;98061.88;;;14.17;68.24
22311;BME280;11323;49.610;11.016;2023-02-22T02:56:58;98055.66;;;14.18;68.52
22311;BME280;11323;49.610;11.016;2023-02-22T03:07:47;98049.09;;;14.14;68.60
22311;BME280;11323;49.610;11.016;2023-02-22T03:18:27;98041.41;;;14.12;68.36
22311;BME280;11323;49.610;11.016;2023-02-22T03:23:40;98051.53;;;14.15;68.11
22311;BME280;11323;49.610;11.016;2023-02-22T03:28:43;98034.88;;;14.08;68.09
22311;BME280;11323;49.610;11.016;2023-02-22T03:34:01;98040.59;;;14.12;68.74
22311;BME280;11323;49.610;11.016;2023-02-22T03:39:08;98024.06;;;14.11;68.48
22311;BME280;11323;49.610;11.016;2023-02-22T03:44:14;98030.44;;;14.09;68.61
22311;BME280;11323;49.610;11.016;2023-02-22T03:54:31;98026.16;;;14.08;68.64
22311;BME280;11323;49.610;11.016;2023-02-22T03:59:32;98034.22;;;14.06;68.58
22311;BME280;11323;49.610;11.016;2023-02-22T04:04:33;98019.00;;;14.01;68.16
22311;BME280;11323;49.610;11.016;2023-02-22T04:09:34;98035.66;;;14.09;68.15
22311;BME280;11323;49.610;11.016;2023-02-22T04:14:34;98036.03;;;14.05;68.14
22311;BME280;11323;49.610;11.016;2023-02-22T04:19:35;98039.28;;;14.08;68.26
22311;BME280;11323;49.610;11.016;2023-02-22T04:24:36;98034.38;;;14.04;68.37
22311;BME280;11323;49.610;11.016;2023-02-22T04:29:36;98035.38;;;14.03;68.33
22311;BME280;11323;49.610;11.016;2023-02-22T04:34:39;98022.59;;;14.00;68.60
22311;BME280;11323;49.610;11.016;2023-02-22T04:39:40;98027.84;;;14.00;67.97
22311;BME280;11323;49.610;11.016;2023-02-22T04:44:40;98009.69;;;13.99;68.11
22311;BME280;11323;49.610;11.016;2023-02-22T04:49:41;98011.94;;;14.02;68.11
22311;BME280;11323;49.610;11.016;2023-02-22T04:54:41;98020.16;;;13.99;68.23
22311;BME280;11323;49.610;11.016;2023-02-22T04:59:42;97996.59;;;13.90;68.25
22311;BME280;11323;49.610;11.016;2023-02-22T05:04:45;98008.84;;;13.98;68.04
22311;BME280;11323;49.610;11.016;2023-02-22T05:09:45;98003.97;;;13.95;68.43
22311;BME280;11323;49.610;11.016;2023-02-22T05:14:45;98003.97;;;13.95;68.27
22311;BME280;11323;49.610;11.016;2023-02-22T05:19:46;98005.94;;;13.93;68.27
22311;BME280;11323;49.610;11.016;2023-02-22T05:24:46;97992.19;;;13.91;68.57
22311;BME280;11323;49.610;11.016;2023-02-22T05:29:47;97986.94;;;13.91;68.34
22311;BME280;11323;49.610;11.016;2023-02-22T05:34:47;97987.94;;;13.90;68.55
22311;BME280;11323;49.610;11.016;2023-02-22T05:39:48;97993.34;;;13.88;67.93
22311;BME280;11323;49.610;11.016;2023-02-22T05:44:50;97981.56;;;13.84;68.44
22311;BME280;11323;49.610;11.016;2023-02-22T05:49:50;97986.00;;;13.84;68.41
22311;BME280;11323;49.610;11.016;2023-02-22T05:54:50;97980.91;;;13.82;68.00
22311;BME280;11323;49.610;11.016;2023-02-22T05:59:51;97985.34;;;13.82;68.51
22311;BME280;11323;49.610;11.016;2023-02-22T06:04:51;97971.44;;;13.73;68.27
22311;BME280;11323;49.610;11.016;2023-02-22T06:09:52;97982.06;;;13.80;68.38
22311;BME280;11323;49.610;11.016;2023-02-22T06:14:52;97991.88;;;13.78;68.42
22311;BME280;11323;49.610;11.016;2023-02-22T06:19:52;97990.25;;;13.77;68.05
22311;BME280;11323;49.610;11.016;2023-02-22T06:24:53;97988.97;;;13.72;68.46
22311;BME280;11323;49.610;11.016;2023-02-22T06:29:53;97992.22;;;13.74;68.26
22311;BME280;11323;49.610;11.016;2023-02-22T06:34:54;97997.81;;;13.71;68.26
22311;BME280;11323;49.610;11.016;2023-02-22T06:39:54;98003.19;;;13.70;68.54
22311;BME280;11323;49.610;11.016;2023-02-22T06:44:54;98000.59;;;13.70;68.69
22311;BME280;11323;49.610;11.016;2023-02-22T06:49:56;98006.81;;;13.69;68.86
22311;BME280;11323;49.610;11.016;2023-02-22T06:54:57;98000.44;;;13.63;68.74
22311;BME280;11323;49.610;11.016;2023-02-22T06:59:58;98012.22;;;13.67;69.12
22311;BME280;11323;49.610;11.016;2023-02-22T07:04:58;98003.38;;;13.68;68.79
22311;BME280;11323;49.610;11.016;2023-02-22T07:09:58;97998.81;;;13.62;68.70
22311;BME280;11323;49.610;11.016;2023-02-22T07:14:59;97999.09;;;13.75;69.42
22311;BME280;11323;49.610;11.016;2023-02-22T07:19:59;98000.41;;;13.80;69.38
22311;BME280;11323;49.610;11.016;2023-02-22T07:25:00;97993.19;;;13.82;69.10
22311;BME280;11323;49.610;11.016;2023-02-22T07:30:00;97989.25;;;13.86;68.99
22311;BME280;11323;49.610;11.016;2023-02-22T07:35:00;97987.28;;;13.88;69.19
22311;BME280;11323;49.610;11.016;2023-02-22T07:40:02;97982.03;;;13.88;69.23
22311;BME280;11323;49.610;11.016;2023-02-22T07:45:03;97990.88;;;13.87;69.48
22311;BME280;11323;49.610;11.016;2023-02-22T07:50:04;97989.88;;;13.88;69.09
22311;BME280;11323;49.610;11.016;2023-02-22T07:55:04;97978.75;;;13.86;68.85
22311;BME280;11323;49.610;11.016;2023-02-22T08:00:06;97984.97;;;13.93;68.88
22311;BME280;11323;49.610;11.016;2023-02-22T08:05:13;97988.59;;;13.92;69.08
22311;BME280;11323;49.610;11.016;2023-02-22T08:10:14;97986.47;;;13.87;68.75
22311;BME280;11323;49.610;11.016;2023-02-22T08:15:18;97988.09;;;13.88;67.39
22311;BME280;11323;49.610;11.016;2023-02-22T08:20:20;97982.66;;;13.98;67.79
22311;BME280;11323;49.610;11.016;2023-02-22T08:25:22;97987.22;;;14.04;67.86
22311;BME280;11323;49.610;11.016;2023-02-22T08:30:24;97991.78;;;14.11;68.21
22311;BME280;11323;49.610;11.016;2023-02-22T08:35:25;97993.06;;;14.15;68.25
22311;BME280;11323;49.610;11.016;2023-02-22T08:40:29;97976.53;;;14.14;68.21
22311;BME280;11323;49.610;11.016;2023-02-22T08:45:30;97988.97;;;14.20;68.43
22311;BME280;11323;49.610;11.016;2023-02-22T08:50:31;97984.38;;;14.23;68.39
22311;BME280;11323;49.610;11.016;2023-02-22T08:55:36;97977.63;;;14.20;68.35
22311;BME280;11323;49.610;11.016;2023-02-22T09:00:39;97977.63;;;14.28;68.48
22311;BME280;11323;49.610;11.016;2023-02-22T09:05:42;97977.13;;;14.25;68.12
22311;BME280;11323;49.610;11.016;2023-02-22T09:10:43;97977.25;;;14.31;67.91
22311;BME280;11323;49.610;11.016;2023-02-22T09:15:44;97975.00;;;14.28;67.98
22311;BME280;11323;49.610;11.016;2023-02-22T09:20:44;97978.56;;;14.35;67.85
22311;BME280;11323;49.610;11.016;2023-02-22T09:25:46;97979.19;;;14.38;67.99
22311;BME280;11323;49.610;11.016;2023-02-22T09:30:46;97978.03;;;14.40;68.01
22311;BME280;11323;49.610;11.016;2023-02-22T09:35:48;97972.56;;;14.50;68.21
22311;BME280;11323;49.610;11.016;2023-02-22T09:40:51;97972.53;;;14.58;68.28
22311;BME280;11323;49.610;11.016;2023-02-22T09:46:14;97963.31;;;14.62;68.58
22311;BME280;11323;49.610;11.016;2023-02-22T09:51:20;97956.91;;;14.65;68.38
22311;BME280;11323;49.610;11.016;2023-02-22T09:56:23;97955.06;;;14.74;68.77
22311;BME280;11323;49.610;11.016;2023-02-22T10:01:28;97949.47;;;14.77;69.32
22311;BME280;11323;49.610;11.016;2023-02-22T10:06:32;97956.00;;;14.81;69.53
22311;BME280;11323;49.610;11.016;2023-02-22T10:11:48;97953.19;;;14.82;68.86
22311;BME280;11323;49.610;11.016;2023-02-22T10:27:27;97942.56;;;14.76;68.41
22311;BME280;11323;49.610;11.016;2023-02-22T10:33:32;97939.03;;;14.69;68.36
22311;BME280;11323;49.610;11.016;2023-02-22T10:38:26;97926.59;;;14.62;68.23
22311;BME280;11323;49.610;11.016;2023-02-22T10:43:27;97929.19;;;14.71;68.22
22311;BME280;11323;49.610;11.016;2023-02-22T10:48:28;97935.09;;;14.73;68.18
22311;BME280;11323;49.610;11.016;2023-02-22T10:53:30;97934.09;;;14.74;68.23
22311;BME280;11323;49.610;11.016;2023-02-22T11:04:19;97909.50;;;14.75;68.18
22311;BME280;11323;49.610;11.016;2023-02-22T11:09:20;97909.50;;;14.75;68.04
22311;BME280;11323;49.610;11.016;2023-02-22T11:14:26;97897.38;;;14.74;68.00
22311;BME280;11323;49.610;11.016;2023-02-22T11:19:29;97890.84;;;14.70;68.41
22311;BME280;11323;49.610;11.016;2023-02-22T11:24:30;97900.00;;;14.74;68.04
22311;BME280;11323;49.610;11.016;2023-02-22T11:29:36;97881.63;;;14.74;67.80
22311;BME280;11323;49.610;11.016;2023-02-22T11:34:39;97872.78;;;14.75;67.81
22311;BME280;11323;49.610;11.016;2023-02-22T11:39:39;97872.13;;;14.73;68.02
22311;BME280;11323;49.610;11.016;2023-02-22T11:44:42;97866.50;;;14.76;67.96
22311;BME280;11323;49.610;11.016;2023-02-22T11:49:44;97860.16;;;14.70;68.24
22311;BME280;11323;49.610;11.016;2023-02-22T11:55:07;97857.72;;;14.69;68.37
22311;BME280;11323;49.610;11.016;2023-02-22T12:10:54;97839.41;;;14.60;64.78
22311;BME280;11323;49.610;11.016;2023-02-22T12:21:05;97830.34;;;14.48;65.31
22311;BME280;11323;49.610;11.016;2023-02-22T12:31:38;97819.00;;;14.47;63.82
22311;BME280;11323;49.610;11.016;2023-02-22T12:36:47;97809.72;;;14.45;64.21
22311;BME280;11323;49.610;11.016;2023-02-22T12:41:53;97814.16;;;14.44;63.69
22311;BME280;11323;49.610;11.016;2023-02-22T12:46:55;97804.25;;;14.31;63.29
22311;BME280;11323;49.610;11.016;2023-02-22T12:52:09;97794.59;;;14.32;61.58
22311;BME280;11323;49.610;11.016;2023-02-22T13:02:34;97783.00;;;14.26;63.07
22311;BME280;11323;49.610;11.016;2023-02-22T13:07:47;97782.00;;;14.27;63.35
22311;BME280;11323;49.610;11.016;2023-02-22T13:18:34;97786.06;;;14.30;62.26
22311;BME280;11323;49.610;11.016;2023-02-22T13:29:34;97761.28;;;14.17;62.11
22311;BME280;11323;49.610;11.016;2023-02-22T13:39:58;97758.47;;;14.19;62.80
22311;BME280;11323;49.610;11.016;2023-02-22T13:45:36;97762.44;;;14.15;61.81
22311;BME280;11323;49.610;11.016;2023-02-22T13:50:52;97755.56;;;14.14;62.50
22311;BME280;11323;49.610;11.016;2023-02-22T13:55:58;97759.19;;;14.13;62.44
22311;BME280;11323;49.610;11.016;2023-02-22T14:00:59;97761.47;;;14.16;62.31
22311;BME280;11323;49.610;11.016;2023-02-22T14:06:01;97766.88;;;14.14;62.59
22311;BME280;11323;49.610;11.016;2023-02-22T14:16:16;97745.78;;;14.08;62.40
22311;BME280;11323;49.610;11.016;2023-02-22T14:21:19;97745.00;;;14.07;62.03
22311;BME280;11323;49.610;11.016;2023-02-22T14:26:31;97745.44;;;14.11;62.35
22311;BME280;11323;49.610;11.016;2023-02-22T14:36:57;97739.94;;;14.05;62.00
22311;BME280;11323;49.610;11.016;2023-02-22T14:42:07;97738.94;;;14.07;61.66
22311;BME280;11323;49.610;11.016;2023-02-22T14:47:16;97742.56;;;14.05;61.70
22311;BME280;11323;49.610;11.016;2023-02-22T14:52:24;97739.28;;;14.03;61.67
22311;BME280;11323;49.610;11.016;2023-02-22T14:57:57;97734.03;;;14.03;61.59
22311;BME280;11323;49.610;11.016;2023-02-22T15:02:59;97734.38;;;14.00;62.76
22311;BME280;11323;49.610;11.016;2023-02-22T15:08:02;97735.03;;;14.02;61.92
22311;BME280;11323;49.610;11.016;2023-02-22T15:13:05;97731.13;;;13.98;62.21
22311;BME280;11323;49.610;11.016;2023-02-22T15:23:18;97732.13;;;13.97;62.08
22311;BME280;11323;49.610;11.016;2023-02-22T15:28:22;97726.88;;;13.97;62.73
22311;BME280;11323;49.610;11.016;2023-02-22T15:33:28;97733.09;;;13.96;62.60
22311;BME280;11323;49.610;11.016;2023-02-22T15:38:30;97730.66;;;13.95;62.28
22311;BME280;11323;49.610;11.016;2023-02-22T15:43:30;97720.38;;;13.93;62.54
22311;BME280;11323;49.610;11.016;2023-02-22T15:48:31;97717.38;;;13.96;62.65
22311;BME280;11323;49.610;11.016;2023-02-22T15:53:45;97718.41;;;13.95;62.97
22311;BME280;11323;49.610;11.016;2023-02-22T15:58:47;97707.16;;;13.86;62.89
22311;BME280;11323;49.610;11.016;2023-02-22T16:03:50;97699.47;;;13.85;63.11
22311;BME280;11323;49.610;11.016;2023-02-22T16:08:51;97713.84;;;13.89;63.36
22311;BME280;11323;49.610;11.016;2023-02-22T16:13:52;97711.22;;;13.89;63.25
22311;BME280;11323;49.610;11.016;2023-02-22T16:19:31;97697.16;;;13.90;63.27
22311;BME280;11323;49.610;11.016;2023-02-22T16:24:35;97710.06;;;13.92;63.62
22311;BME280;11323;49.610;11.016;2023-02-22T16:29:35;97705.00;;;13.90;63.84
22311;BME280;11323;49.610;11.016;2023-02-22T16:34:36;97711.88;;;13.91;63.68
22311;BME280;11323;49.610;11.016;2023-02-22T16:39:36;97716.47;;;13.89;64.18
22311;BME280;11323;49.610;11.016;2023-02-22T16:44:37;97708.53;;;13.97;64.69
22311;BME280;11323;49.610;11.016;2023-02-22T16:49:37;97711.25;;;14.04;65.06
22311;BME280;11323;49.610;11.016;2023-02-22T16:54:43;97707.50;;;14.07;65.35
22311;BME280;11323;49.610;11.016;2023-02-22T16:59:45;97716.81;;;14.09;65.86
22311;BME280;11323;49.610;11.016;2023-02-22T17:04:49;97707.13;;;14.10;65.76
22311;BME280;11323;49.610;11.016;2023-02-22T17:09:49;97716.09;;;14.15;65.65
22311;BME280;11323;49.610;11.016;2023-02-22T17:14:52;97719.16;;;14.19;65.98
22311;BME280;11323;49.610;11.016;2023-02-22T17:19:53;97722.25;;;14.23;65.97
22311;BME280;11323;49.610;11.016;2023-02-22T17:24:54;97721.88;;;14.26;65.77
22311;BME280;11323;49.610;11.016;2023-02-22T17:29:54;97715.50;;;14.28;66.00
22311;BME280;11323;49.610;11.016;2023-02-22T17:34:54;97717.13;;;14.29;66.29
22311;BME280;11323;49.610;11.016;2023-02-22T17:39:55;97717.38;;;14.34;65.92
22311;BME280;11323;49.610;11.016;2023-02-22T17:44:55;97711.16;;;14.35;66.26
22311;BME280;11323;49.610;11.016;2023-02-22T17:49:55;97713.97;;;14.34;66.30
22311;BME280;11323;49.610;11.016;2023-02-22T17:54:57;97724.56;;;14.41;66.59
22311;BME280;11323;49.610;11.016;2023-02-22T17:59:58;97726.16;;;14.42;66.86
22311;BME280;11323;49.610;11.016;2023-02-22T18:05:00;97718.94;;;14.44;66.65
22311;BME280;11323;49.610;11.016;2023-02-22T18:10:00;97729.25;;;14.45;67.18
22311;BME280;11323;49.610;11.016;2023-02-22T18:15:05;97728.06;;;14.48;67.20
22311;BME280;11323;49.610;11.016;2023-02-22T18:20:07;97729.06;;;14.47;67.25
22311;BME280;11323;49.610;11.016;2023-02-22T18:25:13;97740.84;;;14.51;67.02
22311;BME280;11323;49.610;11.016;2023-02-22T18:30:13;97729.06;;;14.47;67.23
22311;BME280;11323;49.610;11.016;2023-02-22T18:35:14;97738.81;;;14.53;66.81
22311;BME280;11323;49.610;11.016;2023-02-22T18:40:14;97732.44;;;14.56;67.15
22311;BME280;11323;49.610;11.016;2023-02-22T18:45:18;97736.50;;;14.58;67.29
22311;BME280;11323;49.610;11.016;2023-02-22T18:50:18;97739.13;;;14.58;67.51
22311;BME280;11323;49.610;11.016;2023-02-22T18:55:20;97733.69;;;14.60;67.17
22311;BME280;11323;49.610;11.016;2023-02-22T19:00:21;97736.50;;;14.58;67.04
22311;BME280;11323;49.610;11.016;2023-02-22T19:05:27;97726.72;;;14.52;66.71
22311;BME280;11323;49.610;11.016;2023-02-22T19:10:28;97728.19;;;14.55;66.71
22311;BME280;11323;49.610;11.016;2023-02-22T19:15:28;97733.97;;;14.50;66.72
22311;BME280;11323;49.610;11.016;2023-02-22T19:20:29;97727.88;;;14.49;66.59
22311;BME280;11323;49.610;11.016;2023-02-22T19:25:32;97735.59;;;14.51;66.81
22311;BME280;11323;49.610;11.016;2023-02-22T19:30:32;97730.59;;;14.56;66.83
22311;BME280;11323;49.610;11.016;2023-02-22T19:35:33;97722.75;;;14.56;67.38
22311;BME280;11323;49.610;11.016;2023-02-22T19:40:33;97725.66;;;14.61;67.50
22311;BME280;11323;49.610;11.016;2023-02-22T19:45:38;97734.25;;;14.70;67.45
22311;BME280;11323;49.610;11.016;2023-02-22T19:50:39;97730.47;;;14.73;67.61
22311;BME280;11323;49.610;11.016;2023-02-22T19:55:48;97729.50;;;14.74;67.76
22311;BME280;11323;49.610;11.016;2023-02-22T20:00:48;97739.25;;;14.80;67.87
22311;BME280;11323;49.610;11.016;2023-02-22T20:05:48;97730.38;;;14.81;68.16
22311;BME280;11323;49.610;11.016;2023-02-22T20:10:49;97730.47;;;14.88;68.22
22311;BME280;11323;49.610;11.016;2023-02-22T20:15:49;97737.78;;;14.92;67.71
22311;BME280;11323;49.610;11.016;2023-02-22T20:20:50;97738.59;;;14.93;67.73
22311;BME280;11323;49.610;11.016;2023-02-22T20:25:52;97745.66;;;14.92;67.83
22311;BME280;11323;49.610;11.016;2023-02-22T20:30:52;97741.69;;;14.96;67.71
22311;BME280;11323;49.610;11.016;2023-02-22T20:35:53;97741.94;;;15.02;68.00
22311;BME280;11323;49.610;11.016;2023-02-22T20:40:53;97746.84;;;15.05;68.10
22311;BME280;11323;49.610;11.016;2023-02-22T20:45:53;97736.78;;;15.08;68.32
22311;BME280;11323;49.610;11.016;2023-02-22T20:50:54;97748.72;;;15.11;68.24
22311;BME280;11323;49.610;11.016;2023-02-22T20:55:54;97735.22;;;15.14;68.24
22311;BME280;11323;49.610;11.016;2023-02-22T21:01:03;97732.59;;;15.14;68.54
22311;BME280;11323;49.610;11.016;2023-02-22T21:06:04;97740.13;;;15.17;68.37
22311;BME280;11323;49.610;11.016;2023-02-22T21:11:09;97745.00;;;15.20;68.58
22311;BME280;11323;49.610;11.016;2023-02-22T21:16:51;97746.63;;;15.21;68.30
22311;BME280;11323;49.610;11.016;2023-02-22T21:21:47;97744.63;;;15.23;68.27
22311;BME280;11323;49.610;11.016;2023-02-22T21:26:48;97746.63;;;15.21;65.80
22311;BME280;11323;49.610;11.016;2023-02-22T21:31:48;97748.25;;;15.22;66.16
22311;BME280;11323;49.610;11.016;2023-02-22T21:36:49;97753.50;;;15.22;66.22
22311;BME280;11323;49.610;11.016;2023-02-22T21:41:51;97747.00;;;15.18;66.85
22311;BME280;11323;49.610;11.016;2023-02-22T21:46:51;97753.88;;;15.19;66.77
22311;BME280;11323;49.610;11.016;2023-02-22T21:51:52;97753.06;;;15.19;66.69
22311;BME280;11323;49.610;11.016;2023-02-22T21:56:52;97762.38;;;15.21;66.71
22311;BME280;11323;49.610;11.016;2023-02-22T22:01:54;97757.94;;;15.22;66.67
22311;BME280;11323;49.610;11.016;2023-02-22T22:06:56;97767.25;;;15.24;66.67
22311;BME280;11323;49.610;11.016;2023-02-22T22:11:59;97757.13;;;15.21;67.26
22311;BME280;11323;49.610;11.016;2023-02-22T22:17:01;97751.69;;;15.23;66.86
22311;BME280;11323;49.610;11.016;2023-02-22T22:22:04;97757.22;;;15.13;67.46
22311;BME280;11323;49.610;11.016;2023-02-22T22:27:06;97755.34;;;15.07;67.62
22311;BME280;11323;49.610;11.016;2023-02-22T22:32:08;97761.31;;;15.01;67.53
22311;BME280;11323;49.610;11.016;2023-02-22T22:37:09;97759.69;;;15.00;67.71
22311;BME280;11323;49.610;11.016;2023-02-22T22:42:09;97761.31;;;15.01;67.67
22311;BME280;11323;49.610;11.016;2023-02-22T22:47:10;97757.69;;;15.02;67.41
22311;BME280;11323;49.610;11.016;2023-02-22T22:52:12;97757.69;;;15.02;67.72
22311;BME280;11323;49.610;11.016;2023-02-22T22:57:13;97765.84;;;15.07;67.24
22311;BME280;11323;49.610;11.016;2023-02-22T23:02:14;97760.31;;;15.02;67.69
22311;BME280;11323;49.610;11.016;2023-02-22T23:07:17;97763.28;;;14.98;67.65
22311;BME280;11323;49.610;11.016;2023-02-22T23:12:17;97759.22;;;14.96;67.53
22311;BME280;11323;49.610;11.016;2023-02-22T23:17:18;97762.03;;;14.94;67.60
22311;BME280;11323;49.610;11.016;2023-02-22T23:22:30;97760.41;;;14.93;67.69
22311;BME280;11323;49.610;11.016;2023-02-22T23:27:30;97748.19;;;14.86;67.64
22311;BME280;11323;49.610;11.016;2023-02-22T23:32:31;97753.88;;;14.89;67.60
22311;BME280;11323;49.610;11.016;2023-02-22T23:37:34;97753.00;;;14.82;67.38
22311;BME280;11323;49.610;11.016;2023-02-22T23:42:34;97753.09;;;14.89;67.51
22311;BME280;11323;49.610;11.016;2023-02-22T23:47:34;97764.75;;;14.86;67.41
22311;BME280;11323;49.610;11.016;2023-02-22T23:52:35;97763.59;;;14.89;67.40
22311;BME280;11323;49.610;11.016;2023-02-22T23:57:37;97767.38;;;14.86;67.30
